sensor_id;sensor_type;location;lat;lon;timestamp;P1;durP1;ratioP1;P2;durP2;ratioP2
22995;SDS011;11664;49.774;8.650;2023-03-16T06:10:07;4.85;;;4.45;;
22995;SDS011;11664;49.774;8.650;2023-03-16T06:12:37;4.90;;;4.50;;
22995;SDS011;11664;49.774;8.650;2023-03-16T06:15:07;5.82;;;5.28;;
22995;SDS011;11664;49.774;8.650;2023-03-16T06:17:38;6.97;;;5.17;;
22995;SDS011;11664;49.774;8.650;2023-03-16T06:20:05;7.43;;;4.57;;
22995;SDS011;11664;49.774;8.650;2023-03-16T06:22:49;6.38;;;4.47;;
22995;SDS011;11664;49.774;8.650;2023-03-16T06:28:33;5.20;;;4.47;;
22995;SDS011;11664;49.774;8.650;2023-03-16T06:30:59;4.10;;;3.80;;
22995;SDS011;11664;49.774;8.650;2023-03-16T06:33:28;4.28;;;3.90;;
22995;SDS011;11664;49.774;8.650;2023-03-16T06:36:06;6.07;;;5.55;;
22995;SDS011;11664;49.774;8.650;2023-03-16T06:38:32;4.78;;;4.47;;
22995;SDS011;11664;49.774;8.650;2023-03-16T06:40:58;5.38;;;4.97;;
22995;SDS011;11664;49.774;8.650;2023-03-16T06:43:39;6.60;;;6.00;;
22995;SDS011;11664;49.774;8.650;2023-03-16T06:46:08;6.15;;;4.97;;
22995;SDS011;11664;49.774;8.650;2023-03-16T06:48:39;5.55;;;4.93;;
22995;SDS011;11664;49.774;8.650;2023-03-16T06:51:05;6.88;;;4.85;;
22995;SDS011;11664;49.774;8.650;2023-03-16T06:53:40;5.70;;;5.20;;
22995;SDS011;11664;49.774;8.650;2023-03-16T06:56:06;8.73;;;5.57;;
22995;SDS011;11664;49.774;8.650;2023-03-16T06:58:32;7.03;;;5.47;;
22995;SDS011;11664;49.774;8.650;2023-03-16T07:01:01;6.53;;;5.80;;
22995;SDS011;11664;49.774;8.650;2023-03-16T07:03:27;6.18;;;5.72;;
22995;SDS011;11664;49.774;8.650;2023-03-16T07:05:56;5.85;;;5.40;;
22995;SDS011;11664;49.774;8.650;2023-03-16T07:08:27;6.53;;;6.07;;
22995;SDS011;11664;49.774;8.650;2023-03-16T07:10:59;8.77;;;6.25;;
22995;SDS011;11664;49.774;8.650;2023-03-16T07:13:30;6.78;;;6.13;;
22995;SDS011;11664;49.774;8.650;2023-03-16T07:15:56;9.10;;;8.50;;
22995;SDS011;11664;49.774;8.650;2023-03-16T07:18:25;7.43;;;6.72;;
22995;SDS011;11664;49.774;8.650;2023-03-16T07:20:57;7.13;;;6.38;;
22995;SDS011;11664;49.774;8.650;2023-03-16T07:23:25;5.80;;;5.40;;
22995;SDS011;11664;49.774;8.650;2023-03-16T07:25:51;3.92;;;3.70;;
22995;SDS011;11664;49.774;8.650;2023-03-16T07:28:23;5.60;;;5.10;;
22995;SDS011;11664;49.774;8.650;2023-03-16T07:30:51;4.68;;;4.30;;
22995;SDS011;11664;49.774;8.650;2023-03-16T07:33:20;6.05;;;5.50;;
22995;SDS011;11664;49.774;8.650;2023-03-16T07:35:46;5.20;;;4.80;;
22995;SDS011;11664;49.774;8.650;2023-03-16T07:41:12;5.15;;;4.75;;
22995;SDS011;11664;49.774;8.650;2023-03-16T07:43:38;4.70;;;4.30;;
22995;SDS011;11664;49.774;8.650;2023-03-16T07:46:03;4.55;;;3.97;;
22995;SDS011;11664;49.774;8.650;2023-03-16T07:48:30;5.00;;;4.60;;
22995;SDS011;11664;49.774;8.650;2023-03-16T07:50:56;4.60;;;4.20;;
22995;SDS011;11664;49.774;8.650;2023-03-16T07:53:24;5.30;;;4.07;;
22995;SDS011;11664;49.774;8.650;2023-03-16T07:55:50;4.38;;;3.97;;
22995;SDS011;11664;49.774;8.650;2023-03-16T07:58:18;5.40;;;4.93;;
22995;SDS011;11664;49.774;8.650;2023-03-16T08:00:49;6.90;;;4.88;;
22995;SDS011;11664;49.774;8.650;2023-03-16T08:03:15;4.82;;;4.43;;
22995;SDS011;11664;49.774;8.650;2023-03-16T08:05:43;4.40;;;4.00;;
22995;SDS011;11664;49.774;8.650;2023-03-16T08:08:11;7.43;;;5.35;;
22995;SDS011;11664;49.774;8.650;2023-03-16T08:10:37;8.63;;;5.35;;
22995;SDS011;11664;49.774;8.650;2023-03-16T08:13:03;5.50;;;4.85;;
22995;SDS011;11664;49.774;8.650;2023-03-16T08:15:35;4.78;;;4.35;;
22995;SDS011;11664;49.774;8.650;2023-03-16T08:18:04;4.40;;;4.10;;
22995;SDS011;11664;49.774;8.650;2023-03-16T08:20:31;4.80;;;4.40;;
22995;SDS011;11664;49.774;8.650;2023-03-16T08:22:57;5.13;;;4.72;;
22995;SDS011;11664;49.774;8.650;2023-03-16T08:25:23;5.28;;;4.82;;
22995;SDS011;11664;49.774;8.650;2023-03-16T08:27:49;6.15;;;5.07;;
22995;SDS011;11664;49.774;8.650;2023-03-16T08:30:15;5.50;;;4.63;;
22995;SDS011;11664;49.774;8.650;2023-03-16T08:32:40;5.47;;;4.97;;
22995;SDS011;11664;49.774;8.650;2023-03-16T08:35:13;9.50;;;5.65;;
22995;SDS011;11664;49.774;8.650;2023-03-16T08:37:43;5.93;;;5.32;;
22995;SDS011;11664;49.774;8.650;2023-03-16T08:40:10;6.90;;;4.95;;
22995;SDS011;11664;49.774;8.650;2023-03-16T08:42:39;6.60;;;4.57;;
22995;SDS011;11664;49.774;8.650;2023-03-16T08:45:06;4.53;;;4.13;;
22995;SDS011;11664;49.774;8.650;2023-03-16T08:47:36;5.38;;;4.88;;
22995;SDS011;11664;49.774;8.650;2023-03-16T08:50:04;6.55;;;4.80;;
22995;SDS011;11664;49.774;8.650;2023-03-16T08:52:31;5.05;;;4.65;;
22995;SDS011;11664;49.774;8.650;2023-03-16T08:54:57;5.35;;;4.85;;
22995;SDS011;11664;49.774;8.650;2023-03-16T08:57:24;6.78;;;4.72;;
22995;SDS011;11664;49.774;8.650;2023-03-16T08:59:50;4.07;;;3.67;;
22995;SDS011;11664;49.774;8.650;2023-03-16T09:02:16;7.40;;;5.30;;
22995;SDS011;11664;49.774;8.650;2023-03-16T09:34:40;33.17;;;30.93;;
22995;SDS011;11664;49.774;8.650;2023-03-16T09:37:51;28.37;;;26.53;;
22995;SDS011;11664;49.774;8.650;2023-03-16T09:40:19;10.18;;;9.45;;
22995;SDS011;11664;49.774;8.650;2023-03-16T09:45:31;15.63;;;14.32;;
22995;SDS011;11664;49.774;8.650;2023-03-16T10:03:09;7.90;;;5.50;;
22995;SDS011;11664;49.774;8.650;2023-03-16T10:05:53;6.57;;;6.05;;
22995;SDS011;11664;49.774;8.650;2023-03-16T10:08:24;10.95;;;9.38;;
22995;SDS011;11664;49.774;8.650;2023-03-16T10:11:17;8.88;;;8.07;;
22995;SDS011;11664;49.774;8.650;2023-03-16T10:16:48;7.63;;;6.30;;
22995;SDS011;11664;49.774;8.650;2023-03-16T10:19:40;11.27;;;10.18;;
22995;SDS011;11664;49.774;8.650;2023-03-16T10:22:26;6.38;;;5.78;;
22995;SDS011;11664;49.774;8.650;2023-03-16T11:06:31;6.93;;;6.43;;
22995;SDS011;11664;49.774;8.650;2023-03-16T11:09:11;3.55;;;3.35;;
22995;SDS011;11664;49.774;8.650;2023-03-16T11:11:46;3.00;;;2.90;;
22995;SDS011;11664;49.774;8.650;2023-03-16T11:14:13;3.60;;;3.40;;
22995;SDS011;11664;49.774;8.650;2023-03-16T11:16:57;4.20;;;4.00;;
22995;SDS011;11664;49.774;8.650;2023-03-16T11:19:28;3.47;;;3.28;;
22995;SDS011;11664;49.774;8.650;2023-03-16T11:22:13;5.07;;;4.38;;
22995;SDS011;11664;49.774;8.650;2023-03-16T11:27:23;6.30;;;6.00;;
22995;SDS011;11664;49.774;8.650;2023-03-16T11:32:50;4.60;;;4.40;;
22995;SDS011;11664;49.774;8.650;2023-03-16T11:50:20;3.55;;;2.92;;
22995;SDS011;11664;49.774;8.650;2023-03-16T11:56:12;3.17;;;3.08;;
22995;SDS011;11664;49.774;8.650;2023-03-16T12:11:26;2.55;;;2.45;;
22995;SDS011;11664;49.774;8.650;2023-03-16T12:17:12;2.60;;;2.50;;
22995;SDS011;11664;49.774;8.650;2023-03-16T12:25:53;3.17;;;2.97;;
22995;SDS011;11664;49.774;8.650;2023-03-16T12:28:38;2.85;;;2.72;;
22995;SDS011;11664;49.774;8.650;2023-03-16T12:31:13;3.00;;;2.90;;
22995;SDS011;11664;49.774;8.650;2023-03-16T12:37:06;3.13;;;2.92;;
22995;SDS011;11664;49.774;8.650;2023-03-16T12:49:11;2.75;;;2.65;;
22995;SDS011;11664;49.774;8.650;2023-03-16T12:51:39;2.80;;;2.70;;
22995;SDS011;11664;49.774;8.650;2023-03-16T12:54:17;2.80;;;2.70;;
22995;SDS011;11664;49.774;8.650;2023-03-16T12:57:06;2.55;;;2.45;;
22995;SDS011;11664;49.774;8.650;2023-03-16T12:59:53;2.60;;;2.50;;
22995;SDS011;11664;49.774;8.650;2023-03-16T13:02:35;3.20;;;3.10;;
22995;SDS011;11664;49.774;8.650;2023-03-16T13:05:13;3.08;;;2.97;;
22995;SDS011;11664;49.774;8.650;2023-03-16T13:07:47;3.65;;;3.45;;
22995;SDS011;11664;49.774;8.650;2023-03-16T13:10:20;2.78;;;2.67;;
22995;SDS011;11664;49.774;8.650;2023-03-16T13:12:49;3.00;;;2.90;;
22995;SDS011;11664;49.774;8.650;2023-03-16T13:15:26;2.42;;;2.33;;
22995;SDS011;11664;49.774;8.650;2023-03-16T13:26:37;2.53;;;2.42;;
22995;SDS011;11664;49.774;8.650;2023-03-16T13:29:31;3.97;;;3.83;;
22995;SDS011;11664;49.774;8.650;2023-03-16T13:32:18;3.28;;;3.13;;
22995;SDS011;11664;49.774;8.650;2023-03-16T13:34:45;5.20;;;5.00;;
22995;SDS011;11664;49.774;8.650;2023-03-16T13:37:22;4.55;;;4.35;;
22995;SDS011;11664;49.774;8.650;2023-03-16T13:39:55;5.22;;;4.95;;
22995;SDS011;11664;49.774;8.650;2023-03-16T13:45:13;4.03;;;3.83;;
22995;SDS011;11664;49.774;8.650;2023-03-16T13:47:46;4.32;;;4.13;;
22995;SDS011;11664;49.774;8.650;2023-03-16T13:50:13;3.83;;;3.58;;
22995;SDS011;11664;49.774;8.650;2023-03-16T13:52:48;4.03;;;3.83;;
22995;SDS011;11664;49.774;8.650;2023-03-16T13:55:20;3.83;;;3.22;;
22995;SDS011;11664;49.774;8.650;2023-03-16T13:57:51;3.40;;;3.20;;
22995;SDS011;11664;49.774;8.650;2023-03-16T14:00:29;3.78;;;3.58;;
22995;SDS011;11664;49.774;8.650;2023-03-16T14:03:12;4.03;;;3.25;;
22995;SDS011;11664;49.774;8.650;2023-03-16T14:05:41;4.30;;;4.03;;
22995;SDS011;11664;49.774;8.650;2023-03-16T14:08:14;3.90;;;3.70;;
22995;SDS011;11664;49.774;8.650;2023-03-16T14:10:43;5.57;;;5.03;;
22995;SDS011;11664;49.774;8.650;2023-03-16T14:21:55;4.88;;;4.65;;
22995;SDS011;11664;49.774;8.650;2023-03-16T14:24:34;5.10;;;4.80;;
22995;SDS011;11664;49.774;8.650;2023-03-16T14:27:14;5.15;;;4.85;;
22995;SDS011;11664;49.774;8.650;2023-03-16T14:29:49;5.22;;;4.95;;
22995;SDS011;11664;49.774;8.650;2023-03-16T14:32:25;4.20;;;4.00;;
22995;SDS011;11664;49.774;8.650;2023-03-16T14:37:46;3.63;;;2.95;;
22995;SDS011;11664;49.774;8.650;2023-03-16T14:40:24;2.80;;;2.70;;
22995;SDS011;11664;49.774;8.650;2023-03-16T14:42:58;3.35;;;3.15;;
22995;SDS011;11664;49.774;8.650;2023-03-16T14:45:34;2.97;;;2.80;;
22995;SDS011;11664;49.774;8.650;2023-03-16T14:48:22;3.15;;;2.95;;
22995;SDS011;11664;49.774;8.650;2023-03-16T14:50:54;3.47;;;3.20;;
22995;SDS011;11664;49.774;8.650;2023-03-16T14:53:27;3.38;;;3.17;;
22995;SDS011;11664;49.774;8.650;2023-03-16T14:56:00;3.90;;;3.60;;
22995;SDS011;11664;49.774;8.650;2023-03-16T14:58:31;3.88;;;3.67;;
22995;SDS011;11664;49.774;8.650;2023-03-16T15:01:05;4.18;;;3.33;;
22995;SDS011;11664;49.774;8.650;2023-03-16T15:03:45;3.72;;;3.47;;
22995;SDS011;11664;49.774;8.650;2023-03-16T15:06:14;3.80;;;3.50;;
22995;SDS011;11664;49.774;8.650;2023-03-16T15:08:40;5.43;;;4.85;;
22995;SDS011;11664;49.774;8.650;2023-03-16T15:11:12;6.60;;;6.13;;
22995;SDS011;11664;49.774;8.650;2023-03-16T15:13:37;11.85;;;11.13;;
22995;SDS011;11664;49.774;8.650;2023-03-16T15:16:09;3.90;;;3.70;;
22995;SDS011;11664;49.774;8.650;2023-03-16T15:18:43;4.63;;;4.32;;
22995;SDS011;11664;49.774;8.650;2023-03-16T15:23:43;3.60;;;3.33;;
22995;SDS011;11664;49.774;8.650;2023-03-16T15:26:12;3.38;;;3.17;;
22995;SDS011;11664;49.774;8.650;2023-03-16T15:28:53;3.35;;;3.15;;
22995;SDS011;11664;49.774;8.650;2023-03-16T15:31:19;2.97;;;2.83;;
22995;SDS011;11664;49.774;8.650;2023-03-16T15:33:57;3.05;;;2.90;;
22995;SDS011;11664;49.774;8.650;2023-03-16T15:36:23;3.17;;;2.95;;
22995;SDS011;11664;49.774;8.650;2023-03-16T15:38:52;3.65;;;3.35;;
22995;SDS011;11664;49.774;8.650;2023-03-16T15:41:25;4.07;;;3.58;;
22995;SDS011;11664;49.774;8.650;2023-03-16T15:46:27;3.65;;;3.45;;
22995;SDS011;11664;49.774;8.650;2023-03-16T15:48:56;3.65;;;3.45;;
22995;SDS011;11664;49.774;8.650;2023-03-16T15:51:23;5.35;;;5.07;;
22995;SDS011;11664;49.774;8.650;2023-03-16T15:53:58;6.30;;;5.93;;
22995;SDS011;11664;49.774;8.650;2023-03-16T15:56:33;7.90;;;7.20;;
22995;SDS011;11664;49.774;8.650;2023-03-16T15:59:10;5.45;;;5.13;;
22995;SDS011;11664;49.774;8.650;2023-03-16T16:04:26;3.47;;;3.20;;
22995;SDS011;11664;49.774;8.650;2023-03-16T16:07:05;3.78;;;3.50;;
22995;SDS011;11664;49.774;8.650;2023-03-16T16:09:34;4.25;;;3.95;;
22995;SDS011;11664;49.774;8.650;2023-03-16T16:12:11;7.65;;;7.15;;
22995;SDS011;11664;49.774;8.650;2023-03-16T16:14:38;6.85;;;6.45;;
22995;SDS011;11664;49.774;8.650;2023-03-16T16:17:11;8.55;;;8.05;;
22995;SDS011;11664;49.774;8.650;2023-03-16T16:19:48;7.18;;;6.78;;
22995;SDS011;11664;49.774;8.650;2023-03-16T16:22:20;3.75;;;3.42;;
22995;SDS011;11664;49.774;8.650;2023-03-16T16:24:46;3.17;;;2.88;;
22995;SDS011;11664;49.774;8.650;2023-03-16T16:27:20;3.10;;;2.90;;
22995;SDS011;11664;49.774;8.650;2023-03-16T16:29:49;3.45;;;3.25;;
22995;SDS011;11664;49.774;8.650;2023-03-16T16:32:22;3.50;;;3.20;;
22995;SDS011;11664;49.774;8.650;2023-03-16T16:34:48;4.30;;;4.00;;
22995;SDS011;11664;49.774;8.650;2023-03-16T16:37:20;3.90;;;3.70;;
22995;SDS011;11664;49.774;8.650;2023-03-16T16:39:52;9.82;;;9.20;;
22995;SDS011;11664;49.774;8.650;2023-03-16T16:42:17;4.00;;;3.80;;
22995;SDS011;11664;49.774;8.650;2023-03-16T16:44:49;3.58;;;3.35;;
22995;SDS011;11664;49.774;8.650;2023-03-16T16:47:19;4.43;;;4.13;;
22995;SDS011;11664;49.774;8.650;2023-03-16T16:49:50;4.97;;;4.57;;
22995;SDS011;11664;49.774;8.650;2023-03-16T16:52:22;5.35;;;5.05;;
22995;SDS011;11664;49.774;8.650;2023-03-16T16:54:47;5.72;;;4.78;;
22995;SDS011;11664;49.774;8.650;2023-03-16T16:57:17;3.80;;;3.60;;
22995;SDS011;11664;49.774;8.650;2023-03-16T16:59:49;3.28;;;2.97;;
22995;SDS011;11664;49.774;8.650;2023-03-16T17:05:22;3.97;;;3.58;;
22995;SDS011;11664;49.774;8.650;2023-03-16T17:07:57;3.60;;;3.35;;
22995;SDS011;11664;49.774;8.650;2023-03-16T17:10:31;4.15;;;3.50;;
22995;SDS011;11664;49.774;8.650;2023-03-16T17:13:00;3.13;;;2.92;;
22995;SDS011;11664;49.774;8.650;2023-03-16T17:15:35;5.95;;;5.35;;
22995;SDS011;11664;49.774;8.650;2023-03-16T17:18:02;4.20;;;3.95;;
22995;SDS011;11664;49.774;8.650;2023-03-16T17:20:33;4.00;;;3.72;;
22995;SDS011;11664;49.774;8.650;2023-03-16T17:25:56;3.83;;;3.50;;
22995;SDS011;11664;49.774;8.650;2023-03-16T17:28:37;5.82;;;5.30;;
22995;SDS011;11664;49.774;8.650;2023-03-16T17:31:15;4.63;;;4.22;;
22995;SDS011;11664;49.774;8.650;2023-03-16T17:33:54;6.85;;;5.18;;
22995;SDS011;11664;49.774;8.650;2023-03-16T17:36:21;4.38;;;3.97;;
22995;SDS011;11664;49.774;8.650;2023-03-16T17:38:50;5.47;;;4.88;;
22995;SDS011;11664;49.774;8.650;2023-03-16T17:43:50;8.00;;;6.00;;
22995;SDS011;11664;49.774;8.650;2023-03-16T17:46:39;20.13;;;9.73;;
22995;SDS011;11664;49.774;8.650;2023-03-16T17:49:17;15.77;;;8.23;;
22995;SDS011;11664;49.774;8.650;2023-03-16T17:51:46;12.93;;;6.50;;
22995;SDS011;11664;49.774;8.650;2023-03-16T17:54:22;12.80;;;7.45;;
22995;SDS011;11664;49.774;8.650;2023-03-16T17:56:51;6.22;;;4.22;;
22995;SDS011;11664;49.774;8.650;2023-03-16T17:59:24;13.77;;;6.90;;
22995;SDS011;11664;49.774;8.650;2023-03-16T18:01:52;12.02;;;6.70;;
22995;SDS011;11664;49.774;8.650;2023-03-16T18:04:22;5.40;;;4.00;;
22995;SDS011;11664;49.774;8.650;2023-03-16T18:06:50;4.47;;;3.78;;
22995;SDS011;11664;49.774;8.650;2023-03-16T18:09:16;4.97;;;4.47;;
22995;SDS011;11664;49.774;8.650;2023-03-16T18:11:49;5.28;;;4.78;;
22995;SDS011;11664;49.774;8.650;2023-03-16T18:20:01;4.83;;;4.23;;
22995;SDS011;11664;49.774;8.650;2023-03-16T18:22:33;5.40;;;4.05;;
22995;SDS011;11664;49.774;8.650;2023-03-16T18:24:58;4.38;;;3.78;;
22995;SDS011;11664;49.774;8.650;2023-03-16T18:27:28;4.30;;;4.00;;
22995;SDS011;11664;49.774;8.650;2023-03-16T18:29:55;5.15;;;4.60;;
22995;SDS011;11664;49.774;8.650;2023-03-16T18:32:42;4.75;;;4.35;;
22995;SDS011;11664;49.774;8.650;2023-03-16T18:35:14;4.00;;;3.70;;
22995;SDS011;11664;49.774;8.650;2023-03-16T18:37:54;4.53;;;3.60;;
22995;SDS011;11664;49.774;8.650;2023-03-16T18:40:26;5.70;;;3.78;;
22995;SDS011;11664;49.774;8.650;2023-03-16T18:42:58;3.80;;;3.50;;
22995;SDS011;11664;49.774;8.650;2023-03-16T18:45:23;3.78;;;3.55;;
22995;SDS011;11664;49.774;8.650;2023-03-16T18:47:57;4.57;;;4.18;;
22995;SDS011;11664;49.774;8.650;2023-03-16T18:50:26;4.28;;;3.88;;
22995;SDS011;11664;49.774;8.650;2023-03-16T18:52:59;6.30;;;4.28;;
22995;SDS011;11664;49.774;8.650;2023-03-16T18:55:28;4.35;;;3.95;;
22995;SDS011;11664;49.774;8.650;2023-03-16T18:58:00;4.22;;;3.85;;
22995;SDS011;11664;49.774;8.650;2023-03-16T19:00:32;3.75;;;3.45;;
22995;SDS011;11664;49.774;8.650;2023-03-16T19:05:31;5.35;;;4.80;;
22995;SDS011;11664;49.774;8.650;2023-03-16T19:10:57;5.55;;;5.15;;
22995;SDS011;11664;49.774;8.650;2023-03-16T19:13:37;5.60;;;5.10;;
22995;SDS011;11664;49.774;8.650;2023-03-16T19:16:02;5.88;;;5.25;;
22995;SDS011;11664;49.774;8.650;2023-03-16T19:18:35;5.47;;;5.07;;
22995;SDS011;11664;49.774;8.650;2023-03-16T19:21:12;4.90;;;4.50;;
22995;SDS011;11664;49.774;8.650;2023-03-16T19:23:42;4.85;;;4.55;;
22995;SDS011;11664;49.774;8.650;2023-03-16T19:26:11;6.18;;;4.55;;
22995;SDS011;11664;49.774;8.650;2023-03-16T19:28:44;4.60;;;4.20;;
22995;SDS011;11664;49.774;8.650;2023-03-16T19:31:15;3.92;;;3.65;;
22995;SDS011;11664;49.774;8.650;2023-03-16T19:33:54;4.40;;;4.00;;
22995;SDS011;11664;49.774;8.650;2023-03-16T19:36:21;3.95;;;3.65;;
22995;SDS011;11664;49.774;8.650;2023-03-16T19:38:52;4.15;;;3.85;;
22995;SDS011;11664;49.774;8.650;2023-03-16T19:41:39;3.63;;;3.40;;
22995;SDS011;11664;49.774;8.650;2023-03-16T19:44:05;4.00;;;3.70;;
22995;SDS011;11664;49.774;8.650;2023-03-16T19:46:48;5.15;;;4.82;;
22995;SDS011;11664;49.774;8.650;2023-03-16T19:49:20;5.60;;;5.10;;
22995;SDS011;11664;49.774;8.650;2023-03-16T19:51:53;8.27;;;4.32;;
22995;SDS011;11664;49.774;8.650;2023-03-16T19:54:27;4.80;;;4.40;;
22995;SDS011;11664;49.774;8.650;2023-03-16T19:56:57;6.85;;;5.72;;
22995;SDS011;11664;49.774;8.650;2023-03-16T19:59:30;4.95;;;4.03;;
22995;SDS011;11664;49.774;8.650;2023-03-16T20:04:48;8.30;;;4.30;;
22995;SDS011;11664;49.774;8.650;2023-03-16T20:07:17;3.88;;;3.58;;
22995;SDS011;11664;49.774;8.650;2023-03-16T20:09:43;4.13;;;3.75;;
22995;SDS011;11664;49.774;8.650;2023-03-16T20:15:08;4.30;;;3.95;;
22995;SDS011;11664;49.774;8.650;2023-03-16T20:17:42;4.28;;;3.67;;
22995;SDS011;11664;49.774;8.650;2023-03-16T20:25:57;4.07;;;3.78;;
22995;SDS011;11664;49.774;8.650;2023-03-16T20:28:33;4.47;;;4.03;;
22995;SDS011;11664;49.774;8.650;2023-03-16T20:31:17;4.25;;;3.70;;
22995;SDS011;11664;49.774;8.650;2023-03-16T20:33:50;5.05;;;4.65;;
22995;SDS011;11664;49.774;8.650;2023-03-16T20:36:17;5.15;;;4.38;;
22995;SDS011;11664;49.774;8.650;2023-03-16T20:38:50;5.15;;;4.05;;
22995;SDS011;11664;49.774;8.650;2023-03-16T20:44:07;4.28;;;3.88;;
22995;SDS011;11664;49.774;8.650;2023-03-16T20:46:50;4.90;;;4.50;;
22995;SDS011;11664;49.774;8.650;2023-03-16T20:51:48;4.20;;;3.80;;
22995;SDS011;11664;49.774;8.650;2023-03-16T20:54:14;5.55;;;4.30;;
22995;SDS011;11664;49.774;8.650;2023-03-16T20:56:42;4.05;;;3.75;;
22995;SDS011;11664;49.774;8.650;2023-03-16T20:59:19;4.82;;;4.43;;
22995;SDS011;11664;49.774;8.650;2023-03-16T21:01:48;7.65;;;4.07;;
22995;SDS011;11664;49.774;8.650;2023-03-16T21:04:23;4.38;;;4.10;;
22995;SDS011;11664;49.774;8.650;2023-03-16T21:06:54;5.50;;;5.07;;
22995;SDS011;11664;49.774;8.650;2023-03-16T21:09:20;4.07;;;3.78;;
22995;SDS011;11664;49.774;8.650;2023-03-16T21:11:52;5.75;;;5.35;;
22995;SDS011;11664;49.774;8.650;2023-03-16T21:14:22;6.05;;;4.70;;
22995;SDS011;11664;49.774;8.650;2023-03-16T21:16:48;3.90;;;3.60;;
22995;SDS011;11664;49.774;8.650;2023-03-16T21:19:19;4.28;;;3.80;;
22995;SDS011;11664;49.774;8.650;2023-03-16T21:21:46;3.45;;;3.13;;
22995;SDS011;11664;49.774;8.650;2023-03-16T21:24:15;3.25;;;2.85;;
22995;SDS011;11664;49.774;8.650;2023-03-16T21:26:50;3.80;;;3.50;;
22995;SDS011;11664;49.774;8.650;2023-03-16T21:29:25;3.70;;;3.40;;
22995;SDS011;11664;49.774;8.650;2023-03-16T21:31:57;4.43;;;4.05;;
22995;SDS011;11664;49.774;8.650;2023-03-16T21:34:29;4.90;;;4.55;;
22995;SDS011;11664;49.774;8.650;2023-03-16T21:37:04;3.78;;;3.47;;
22995;SDS011;11664;49.774;8.650;2023-03-16T21:39:46;4.40;;;4.03;;
22995;SDS011;11664;49.774;8.650;2023-03-16T21:47:27;4.20;;;3.90;;
22995;SDS011;11664;49.774;8.650;2023-03-16T21:49:53;3.97;;;3.67;;
22995;SDS011;11664;49.774;8.650;2023-03-16T21:52:23;5.63;;;3.75;;
22995;SDS011;11664;49.774;8.650;2023-03-16T21:55:00;3.53;;;3.28;;
22995;SDS011;11664;49.774;8.650;2023-03-16T21:57:40;4.13;;;3.35;;
22995;SDS011;11664;49.774;8.650;2023-03-16T22:02:54;4.05;;;3.75;;
22995;SDS011;11664;49.774;8.650;2023-03-16T22:06:17;4.13;;;3.75;;
22995;SDS011;11664;49.774;8.650;2023-03-16T22:08:50;3.90;;;3.60;;
22995;SDS011;11664;49.774;8.650;2023-03-16T22:11:26;4.13;;;3.92;;
22995;SDS011;11664;49.774;8.650;2023-03-16T22:14:03;3.88;;;3.58;;
22995;SDS011;11664;49.774;8.650;2023-03-16T22:16:30;3.60;;;3.30;;
22995;SDS011;11664;49.774;8.650;2023-03-16T22:18:59;3.55;;;3.35;;
22995;SDS011;11664;49.774;8.650;2023-03-16T22:26:56;4.03;;;3.83;;
22995;SDS011;11664;49.774;8.650;2023-03-16T22:29:29;3.55;;;3.25;;
22995;SDS011;11664;49.774;8.650;2023-03-16T22:32:01;4.10;;;3.90;;
22995;SDS011;11664;49.774;8.650;2023-03-16T22:34:41;5.13;;;4.70;;
22995;SDS011;11664;49.774;8.650;2023-03-16T22:37:15;5.38;;;4.97;;
22995;SDS011;11664;49.774;8.650;2023-03-16T22:39:45;3.97;;;3.65;;
22995;SDS011;11664;49.774;8.650;2023-03-16T22:44:46;3.97;;;3.70;;
22995;SDS011;11664;49.774;8.650;2023-03-16T22:47:22;4.25;;;3.92;;
22995;SDS011;11664;49.774;8.650;2023-03-16T22:52:45;4.18;;;3.97;;
22995;SDS011;11664;49.774;8.650;2023-03-16T22:55:23;3.83;;;3.40;;
22995;SDS011;11664;49.774;8.650;2023-03-16T23:00:52;3.83;;;3.58;;
22995;SDS011;11664;49.774;8.650;2023-03-16T23:03:21;3.70;;;3.50;;
22995;SDS011;11664;49.774;8.650;2023-03-16T23:05:48;3.70;;;3.40;;
22995;SDS011;11664;49.774;8.650;2023-03-16T23:08:21;3.35;;;3.17;;
22995;SDS011;11664;49.774;8.650;2023-03-16T23:10:48;3.50;;;3.30;;
22995;SDS011;11664;49.774;8.650;2023-03-16T23:16:16;5.40;;;5.10;;
22995;SDS011;11664;49.774;8.650;2023-03-16T23:22:01;4.47;;;4.13;;
22995;SDS011;11664;49.774;8.650;2023-03-16T23:24:32;3.42;;;3.22;;
22995;SDS011;11664;49.774;8.650;2023-03-16T23:27:02;3.58;;;3.28;;
22995;SDS011;11664;49.774;8.650;2023-03-16T23:29:28;3.67;;;3.47;;
22995;SDS011;11664;49.774;8.650;2023-03-16T23:31:55;4.93;;;4.63;;
22995;SDS011;11664;49.774;8.650;2023-03-16T23:34:21;4.82;;;4.53;;
22995;SDS011;11664;49.774;8.650;2023-03-16T23:36:51;6.13;;;5.80;;
22995;SDS011;11664;49.774;8.650;2023-03-16T23:39:17;7.00;;;6.65;;
22995;SDS011;11664;49.774;8.650;2023-03-16T23:41:48;3.90;;;3.70;;
22995;SDS011;11664;49.774;8.650;2023-03-16T23:44:22;4.63;;;4.22;;
22995;SDS011;11664;49.774;8.650;2023-03-16T23:46:53;4.43;;;4.22;;
22995;SDS011;11664;49.774;8.650;2023-03-16T23:49:37;3.88;;;3.58;;
22995;SDS011;11664;49.774;8.650;2023-03-16T23:52:21;4.55;;;4.15;;
22995;SDS011;11664;49.774;8.650;2023-03-16T23:54:46;4.05;;;3.85;;
22995;SDS011;11664;49.774;8.650;2023-03-16T23:57:32;4.40;;;4.10;;
22995;SDS011;11664;49.774;8.650;2023-03-16T23:59:58;4.90;;;4.60;;
